createdAt,value
2022-12-06T00:00:07.629Z,322
2022-12-06T00:00:38.966Z,312
2022-12-06T00:01:09.535Z,314
2022-12-06T00:01:41.446Z,319
2022-12-06T00:02:11.752Z,305
2022-12-06T00:02:42.420Z,318
2022-12-06T00:03:14.030Z,314
2022-12-06T00:03:44.463Z,315
2022-12-06T00:04:15.276Z,308
2022-12-06T00:04:46.457Z,281
2022-12-06T00:05:17.363Z,307
2022-12-06T00:05:48.546Z,314
2022-12-06T00:06:19.330Z,314
2022-12-06T00:06:51.924Z,313
2022-12-06T00:07:21.588Z,313
2022-12-06T00:07:52.394Z,308
2022-12-06T00:08:23.386Z,303
2022-12-06T00:08:54.605Z,312
2022-12-06T00:09:25.491Z,308
2022-12-06T00:09:56.739Z,308
2022-12-06T00:10:27.631Z,305
2022-12-06T00:10:58.321Z,316
2022-12-06T00:11:29.449Z,303
2022-12-06T00:12:01.328Z,311
2022-12-06T00:12:31.524Z,314
2022-12-06T00:13:02.464Z,318
2022-12-06T00:13:33.492Z,319
2022-12-06T00:14:04.249Z,319
2022-12-06T00:14:35.480Z,319
2022-12-06T00:15:06.735Z,318
2022-12-06T00:15:37.555Z,318
2022-12-06T00:16:08.811Z,318
2022-12-06T00:16:39.605Z,318
2022-12-06T00:17:11.286Z,318
2022-12-06T00:17:43.024Z,319
2022-12-06T00:18:12.450Z,315
2022-12-06T00:18:43.463Z,315
2022-12-06T00:19:14.569Z,315
2022-12-06T00:19:45.495Z,315
2022-12-06T00:20:16.581Z,300
2022-12-06T00:20:47.329Z,308
2022-12-06T00:21:18.489Z,311
2022-12-06T00:21:50.097Z,315
2022-12-06T00:22:21.760Z,316
2022-12-06T00:22:51.522Z,314
2022-12-06T00:23:22.322Z,313
2022-12-06T00:23:53.658Z,317
2022-12-06T00:24:25.075Z,320
2022-12-06T00:24:55.320Z,315
2022-12-06T00:25:26.544Z,318
2022-12-06T00:25:57.546Z,319
2022-12-06T00:26:28.707Z,319
2022-12-06T00:26:59.454Z,319
2022-12-06T00:27:31.441Z,319
2022-12-06T00:28:02.015Z,309
2022-12-06T00:28:32.271Z,309
2022-12-06T00:29:03.589Z,311
2022-12-06T00:29:34.470Z,313
2022-12-06T00:30:05.579Z,320
2022-12-06T00:30:36.475Z,319
2022-12-06T00:31:07.563Z,319
2022-12-06T00:31:38.551Z,314
2022-12-06T00:32:12.356Z,318
2022-12-06T00:32:41.655Z,319
2022-12-06T00:33:11.881Z,314
2022-12-06T00:33:42.389Z,315
2022-12-06T00:34:13.590Z,315
2022-12-06T00:34:44.610Z,315
2022-12-06T00:35:15.579Z,316
2022-12-06T00:35:46.480Z,316
2022-12-06T00:36:17.562Z,319
2022-12-06T00:36:49.216Z,318
2022-12-06T00:37:19.479Z,318
2022-12-06T00:37:51.581Z,318
2022-12-06T00:38:21.470Z,320
2022-12-06T00:38:52.632Z,319
2022-12-06T00:39:23.918Z,320
2022-12-06T00:39:54.457Z,319
2022-12-06T00:40:25.343Z,320
2022-12-06T00:40:56.416Z,320
2022-12-06T00:41:27.548Z,320
2022-12-06T00:41:58.352Z,319
2022-12-06T00:42:29.484Z,320
2022-12-06T00:43:01.278Z,320
2022-12-06T00:43:31.617Z,320
2022-12-06T00:44:02.411Z,319
2022-12-06T00:44:33.542Z,319
2022-12-06T00:45:04.668Z,319
2022-12-06T00:45:35.674Z,319
2022-12-06T00:46:06.674Z,312
2022-12-06T00:46:37.334Z,309
2022-12-06T00:47:08.716Z,302
2022-12-06T00:47:39.734Z,304
2022-12-06T00:48:11.737Z,308
2022-12-06T00:48:41.618Z,315
2022-12-06T00:49:12.727Z,314
2022-12-06T00:49:43.599Z,313
2022-12-06T00:50:14.606Z,304
2022-12-06T00:50:45.587Z,302
2022-12-06T00:51:16.545Z,302
2022-12-06T00:51:47.651Z,307
2022-12-06T00:52:18.575Z,308
2022-12-06T00:52:49.487Z,308
2022-12-06T00:53:21.462Z,308
2022-12-06T00:53:51.714Z,308
2022-12-06T00:54:22.426Z,308
2022-12-06T00:54:53.431Z,308
2022-12-06T00:55:24.643Z,314
2022-12-06T00:55:55.392Z,314
2022-12-06T00:56:26.365Z,314
2022-12-06T00:56:57.347Z,314
2022-12-06T00:57:28.551Z,314
2022-12-06T00:57:59.750Z,313
2022-12-06T00:58:31.621Z,314
2022-12-06T00:59:01.556Z,314
2022-12-06T00:59:32.428Z,300
2022-12-06T01:00:06.399Z,305
2022-12-06T01:00:34.517Z,311
2022-12-06T01:01:05.771Z,312
2022-12-06T01:01:36.839Z,313
2022-12-06T01:02:07.439Z,313
2022-12-06T01:02:38.858Z,313
2022-12-06T01:03:09.752Z,313
2022-12-06T01:03:41.401Z,313
2022-12-06T01:04:11.291Z,313
2022-12-06T01:04:42.609Z,313
2022-12-06T01:05:14.095Z,313
2022-12-06T01:05:44.489Z,313
2022-12-06T01:06:15.433Z,313
2022-12-06T01:06:46.538Z,313
2022-12-06T01:07:17.702Z,313
2022-12-06T01:07:48.470Z,313
2022-12-06T01:08:19.480Z,313
2022-12-06T01:08:51.678Z,313
2022-12-06T01:09:21.724Z,313
2022-12-06T01:09:52.456Z,313
2022-12-06T01:10:23.603Z,313
2022-12-06T01:10:54.622Z,313
2022-12-06T01:11:26.118Z,313
2022-12-06T01:11:56.702Z,312
2022-12-06T01:12:27.451Z,312
2022-12-06T01:12:58.588Z,313
2022-12-06T01:13:29.760Z,312
2022-12-06T01:14:01.653Z,312
2022-12-06T01:14:31.479Z,312
2022-12-06T01:15:05.252Z,312
2022-12-06T01:15:33.679Z,312
2022-12-06T01:16:04.404Z,312
2022-12-06T01:16:35.662Z,312
2022-12-06T01:17:06.690Z,312
2022-12-06T01:17:37.575Z,312
2022-12-06T01:18:08.801Z,312
2022-12-06T01:18:39.454Z,313
2022-12-06T01:19:11.571Z,313
2022-12-06T01:19:41.546Z,313
2022-12-06T01:20:12.363Z,313
2022-12-06T01:20:43.442Z,313
2022-12-06T01:21:14.511Z,313
2022-12-06T01:21:45.482Z,313
2022-12-06T01:22:16.654Z,313
2022-12-06T01:22:47.407Z,313
2022-12-06T01:23:18.264Z,314
2022-12-06T01:23:49.348Z,324
2022-12-06T01:24:21.719Z,324
2022-12-06T01:24:51.731Z,324
2022-12-06T01:25:25.933Z,324
2022-12-06T01:25:53.505Z,324
2022-12-06T01:26:24.716Z,324
2022-12-06T01:26:55.546Z,324
2022-12-06T01:27:26.401Z,324
2022-12-06T01:27:57.599Z,324
2022-12-06T01:28:28.651Z,324
2022-12-06T01:28:59.734Z,324
2022-12-06T01:29:31.600Z,324
2022-12-06T01:30:04.300Z,324
2022-12-06T01:30:32.450Z,323
2022-12-06T01:31:03.791Z,330
2022-12-06T01:31:38.584Z,332
2022-12-06T01:32:05.629Z,332
2022-12-06T01:32:36.681Z,332
2022-12-06T01:33:07.672Z,332
2022-12-06T01:33:38.913Z,332
2022-12-06T01:34:09.616Z,332
2022-12-06T01:34:41.698Z,331
2022-12-06T01:35:11.577Z,331
2022-12-06T01:35:42.438Z,331
2022-12-06T01:36:13.531Z,331
2022-12-06T01:36:44.564Z,331
2022-12-06T01:37:15.531Z,331
2022-12-06T01:37:46.707Z,331
2022-12-06T01:38:17.480Z,331
2022-12-06T01:38:48.551Z,332
2022-12-06T01:39:19.392Z,332
2022-12-06T01:39:51.842Z,332
2022-12-06T01:40:22.315Z,331
2022-12-06T01:40:52.736Z,332
2022-12-06T01:41:24.494Z,332
2022-12-06T01:41:54.922Z,331
2022-12-06T01:42:26.101Z,331
2022-12-06T01:42:56.876Z,331
2022-12-06T01:43:27.543Z,331
2022-12-06T01:43:58.891Z,331
2022-12-06T01:44:32.346Z,331
2022-12-06T01:45:05.179Z,331
2022-12-06T01:45:31.807Z,331
2022-12-06T01:46:02.823Z,331
2022-12-06T01:46:33.793Z,331
2022-12-06T01:47:04.985Z,331
2022-12-06T01:47:35.804Z,331
2022-12-06T01:48:06.447Z,331
2022-12-06T01:48:37.607Z,332
2022-12-06T01:49:09.086Z,332
2022-12-06T01:49:56.515Z,332
2022-12-06T01:50:06.695Z,332
2022-12-06T01:50:37.760Z,333
2022-12-06T01:51:15.796Z,333
2022-12-06T01:51:44.160Z,332
2022-12-06T01:52:15.183Z,333
2022-12-06T01:52:45.696Z,333
2022-12-06T01:53:19.269Z,332
2022-12-06T01:53:47.938Z,333
2022-12-06T01:54:18.474Z,331
2022-12-06T01:54:49.713Z,331
2022-12-06T01:55:21.428Z,328
2022-12-06T01:55:51.479Z,324
2022-12-06T01:56:22.532Z,324
2022-12-06T01:56:53.586Z,324
2022-12-06T01:57:25.223Z,324
2022-12-06T01:57:55.493Z,324
2022-12-06T01:58:26.535Z,324
2022-12-06T01:58:57.418Z,324
2022-12-06T01:59:28.477Z,324
2022-12-06T01:59:59.677Z,324
2022-12-06T02:00:36.912Z,324
2022-12-06T02:01:01.739Z,324
2022-12-06T02:01:32.602Z,324
2022-12-06T02:02:03.501Z,324
2022-12-06T02:02:34.721Z,324
2022-12-06T02:03:05.623Z,324
2022-12-06T02:03:36.439Z,324
2022-12-06T02:04:07.577Z,324
2022-12-06T02:04:38.492Z,324
2022-12-06T02:05:09.462Z,323
2022-12-06T02:05:41.571Z,324
2022-12-06T02:06:11.732Z,324
2022-12-06T02:06:42.392Z,324
2022-12-06T02:07:13.494Z,324
2022-12-06T02:07:44.527Z,324
2022-12-06T02:08:15.879Z,324
2022-12-06T02:08:46.541Z,324
2022-12-06T02:09:17.611Z,324
2022-12-06T02:09:48.707Z,324
2022-12-06T02:12:54.773Z,324
2022-12-06T02:13:25.588Z,324
2022-12-06T02:13:56.744Z,325
2022-12-06T02:14:27.572Z,326
2022-12-06T02:14:58.684Z,326
2022-12-06T02:15:32.259Z,326
2022-12-06T02:16:01.700Z,327
2022-12-06T02:16:31.649Z,327
2022-12-06T02:17:02.645Z,326
2022-12-06T02:17:33.784Z,331
2022-12-06T02:18:04.715Z,340
2022-12-06T02:18:35.635Z,344
2022-12-06T02:19:06.376Z,339
2022-12-06T02:19:37.608Z,339
2022-12-06T02:20:08.777Z,339
2022-12-06T02:20:39.528Z,339
2022-12-06T02:21:11.641Z,339
2022-12-06T02:21:41.366Z,339
2022-12-06T02:22:12.372Z,339
2022-12-06T02:22:43.648Z,328
2022-12-06T02:23:14.548Z,327
2022-12-06T02:23:45.653Z,327
2022-12-06T02:24:16.508Z,329
2022-12-06T02:24:47.708Z,329
2022-12-06T02:25:18.647Z,328
2022-12-06T02:25:49.611Z,333
2022-12-06T02:26:21.355Z,335
2022-12-06T02:26:51.407Z,344
2022-12-06T02:27:22.636Z,343
2022-12-06T02:27:53.665Z,343
2022-12-06T02:28:24.766Z,4
2022-12-06T02:28:55.627Z,4
2022-12-06T02:29:26.684Z,5
2022-12-06T02:29:57.869Z,349
2022-12-06T02:30:31.366Z,343
2022-12-06T02:30:59.567Z,342
2022-12-06T02:31:31.773Z,342
2022-12-06T02:32:01.630Z,342
2022-12-06T02:32:32.622Z,342
2022-12-06T02:33:03.687Z,342
2022-12-06T02:33:34.689Z,346
2022-12-06T02:34:05.603Z,346
2022-12-06T02:34:36.321Z,345
2022-12-06T02:35:07.601Z,344
2022-12-06T02:35:38.566Z,344
2022-12-06T02:36:09.724Z,344
2022-12-06T02:36:41.696Z,344
2022-12-06T02:37:11.505Z,344
2022-12-06T02:37:42.544Z,344
2022-12-06T02:38:13.587Z,344
2022-12-06T02:38:44.524Z,344
2022-12-06T02:39:15.716Z,344
2022-12-06T02:39:46.606Z,344
2022-12-06T02:40:17.617Z,344
2022-12-06T02:40:48.756Z,344
2022-12-06T02:41:19.779Z,344
2022-12-06T02:41:51.423Z,344
2022-12-06T02:42:21.507Z,344
2022-12-06T02:42:52.573Z,344
2022-12-06T02:43:23.522Z,344
2022-12-06T02:43:54.708Z,344
2022-12-06T02:44:25.987Z,344
2022-12-06T02:44:56.588Z,344
2022-12-06T02:45:30.296Z,344
2022-12-06T02:45:58.691Z,344
2022-12-06T02:46:29.791Z,344
2022-12-06T02:47:01.646Z,343
2022-12-06T02:47:31.715Z,343
2022-12-06T02:48:02.608Z,344
2022-12-06T02:48:33.684Z,343
2022-12-06T02:49:04.763Z,343
2022-12-06T02:49:35.581Z,344
2022-12-06T02:50:06.357Z,343
2022-12-06T02:50:37.651Z,343
2022-12-06T02:51:08.731Z,344
2022-12-06T02:51:39.521Z,344
2022-12-06T02:52:11.540Z,344
2022-12-06T02:52:41.492Z,344
2022-12-06T02:53:12.624Z,344
2022-12-06T02:53:43.493Z,344
2022-12-06T02:54:14.576Z,344
2022-12-06T02:54:46.301Z,344
2022-12-06T02:55:16.741Z,344
2022-12-06T02:55:47.620Z,344
2022-12-06T02:56:18.682Z,344
2022-12-06T02:56:49.720Z,344
2022-12-06T02:57:21.883Z,343
2022-12-06T02:57:51.470Z,343
2022-12-06T02:58:22.576Z,343
2022-12-06T02:58:53.809Z,343
2022-12-06T02:59:24.903Z,343
2022-12-06T02:59:56.064Z,343
2022-12-06T03:00:29.419Z,343
2022-12-06T03:00:57.817Z,343
2022-12-06T03:01:28.549Z,343
2022-12-06T03:01:59.749Z,343
2022-12-06T03:02:31.742Z,343
2022-12-06T03:03:01.709Z,343
2022-12-06T03:03:32.689Z,343
2022-12-06T03:04:03.819Z,343
2022-12-06T03:04:34.721Z,343
2022-12-06T03:05:05.550Z,343
2022-12-06T03:05:36.556Z,343
2022-12-06T03:06:07.775Z,343
2022-12-06T03:06:38.698Z,343
2022-12-06T03:07:09.651Z,343
2022-12-06T03:07:41.611Z,343
2022-12-06T03:08:12.358Z,343
2022-12-06T03:08:42.516Z,343
2022-12-06T03:09:13.517Z,343
2022-12-06T03:09:44.511Z,343
2022-12-06T03:10:15.648Z,343
2022-12-06T03:10:46.694Z,343
2022-12-06T03:11:17.598Z,343
2022-12-06T03:11:49.511Z,343
2022-12-06T03:12:19.898Z,343
2022-12-06T03:12:51.535Z,343
2022-12-06T03:13:21.445Z,343
2022-12-06T03:13:52.658Z,343
2022-12-06T03:14:23.754Z,343
2022-12-06T03:14:54.577Z,343
2022-12-06T03:15:28.565Z,343
2022-12-06T03:15:56.732Z,343
2022-12-06T03:16:27.801Z,343
2022-12-06T03:16:58.548Z,343
2022-12-06T03:17:29.605Z,343
2022-12-06T03:18:01.703Z,343
2022-12-06T03:18:31.719Z,343
2022-12-06T03:19:02.638Z,343
2022-12-06T03:19:34.053Z,343
2022-12-06T03:20:04.710Z,343
2022-12-06T03:20:35.887Z,343
2022-12-06T03:21:06.520Z,344
2022-12-06T03:21:37.771Z,344
2022-12-06T03:22:08.973Z,344
2022-12-06T03:22:40.296Z,343
2022-12-06T03:23:12.351Z,343
2022-12-06T03:23:41.619Z,343
2022-12-06T03:24:12.710Z,344
2022-12-06T03:24:43.552Z,344
2022-12-06T03:25:14.644Z,343
2022-12-06T03:25:45.990Z,343
2022-12-06T03:26:16.700Z,343
2022-12-06T03:26:47.979Z,343
2022-12-06T03:27:18.454Z,343
2022-12-06T03:27:49.779Z,343
2022-12-06T03:28:21.442Z,343
2022-12-06T03:28:51.531Z,343
2022-12-06T03:29:22.812Z,343
2022-12-06T03:29:53.687Z,343
2022-12-06T03:30:27.508Z,329
2022-12-06T03:30:55.657Z,328
2022-12-06T03:31:26.758Z,330
2022-12-06T03:31:57.474Z,330
2022-12-06T03:32:28.602Z,328
2022-12-06T03:32:59.551Z,329
2022-12-06T03:33:31.788Z,328
2022-12-06T03:34:01.750Z,328
2022-12-06T03:34:32.815Z,329
2022-12-06T03:35:03.646Z,328
2022-12-06T03:35:35.115Z,329
2022-12-06T03:36:05.713Z,329
2022-12-06T03:36:36.509Z,329
2022-12-06T03:37:07.641Z,329
2022-12-06T03:37:38.738Z,330
2022-12-06T03:38:09.983Z,330
2022-12-06T03:38:41.510Z,330
2022-12-06T03:39:11.647Z,324
2022-12-06T03:39:42.719Z,324
2022-12-06T03:40:13.706Z,324
2022-12-06T03:40:44.452Z,324
2022-12-06T03:41:15.390Z,324
2022-12-06T03:41:46.607Z,324
2022-12-06T03:42:17.639Z,324
2022-12-06T03:42:48.469Z,324
2022-12-06T03:43:19.714Z,324
2022-12-06T03:43:51.480Z,324
2022-12-06T03:44:21.594Z,324
2022-12-06T03:44:52.619Z,324
2022-12-06T03:45:26.535Z,324
2022-12-06T03:45:54.981Z,324
2022-12-06T03:46:27.852Z,324
2022-12-06T03:46:56.672Z,324
2022-12-06T03:47:27.652Z,324
2022-12-06T03:47:58.563Z,324
2022-12-06T03:48:29.612Z,324
2022-12-06T03:49:01.831Z,324
2022-12-06T03:49:31.824Z,324
2022-12-06T03:50:03.006Z,324
2022-12-06T03:50:33.762Z,324
2022-12-06T03:51:04.463Z,324
2022-12-06T03:51:35.671Z,324
2022-12-06T03:52:06.705Z,324
2022-12-06T03:52:37.769Z,324
2022-12-06T03:53:09.200Z,324
2022-12-06T03:53:39.438Z,324
2022-12-06T03:54:11.671Z,324
2022-12-06T03:54:41.721Z,324
2022-12-06T03:55:12.830Z,324
2022-12-06T03:55:43.304Z,324
2022-12-06T03:56:14.619Z,324
2022-12-06T03:56:45.823Z,324
2022-12-06T03:57:16.805Z,324
2022-12-06T03:57:47.699Z,324
2022-12-06T03:58:18.686Z,324
2022-12-06T03:58:49.708Z,324
2022-12-06T03:59:21.519Z,324
2022-12-06T03:59:51.608Z,324
2022-12-06T04:00:25.628Z,324
2022-12-06T04:00:53.540Z,324
2022-12-06T04:01:24.876Z,324
2022-12-06T04:01:55.687Z,324
2022-12-06T04:02:26.621Z,324
2022-12-06T04:02:57.851Z,324
2022-12-06T04:03:28.559Z,324
2022-12-06T04:03:59.645Z,324
2022-12-06T04:04:31.792Z,324
2022-12-06T04:05:01.879Z,324
2022-12-06T04:05:32.790Z,324
2022-12-06T04:06:03.696Z,324
2022-12-06T04:06:34.839Z,324
2022-12-06T04:07:05.773Z,324
2022-12-06T04:07:36.690Z,324
2022-12-06T04:08:07.937Z,324
2022-12-06T04:08:38.767Z,324
2022-12-06T04:09:10.216Z,324
2022-12-06T04:09:41.724Z,324
2022-12-06T04:10:11.741Z,324
2022-12-06T04:10:42.542Z,324
2022-12-06T04:11:13.415Z,324
2022-12-06T04:11:44.662Z,324
2022-12-06T04:12:15.765Z,324
2022-12-06T04:12:47.092Z,324
2022-12-06T04:13:19.768Z,324
2022-12-06T04:13:48.716Z,324
2022-12-06T04:14:19.942Z,324
2022-12-06T04:14:51.557Z,324
2022-12-06T04:15:24.410Z,324
2022-12-06T04:15:52.895Z,323
2022-12-06T04:16:23.816Z,323
2022-12-06T04:16:54.936Z,323
2022-12-06T04:17:25.677Z,323
2022-12-06T04:17:56.800Z,323
2022-12-06T04:18:27.735Z,323
2022-12-06T04:18:58.496Z,323
2022-12-06T04:19:29.626Z,323
2022-12-06T04:20:02.257Z,323
2022-12-06T04:20:31.849Z,323
2022-12-06T04:21:02.709Z,323
2022-12-06T04:21:33.722Z,323
2022-12-06T04:22:04.894Z,323
2022-12-06T04:22:35.790Z,323
2022-12-06T04:23:06.618Z,323
2022-12-06T04:23:37.717Z,323
2022-12-06T04:24:08.755Z,323
2022-12-06T04:24:39.626Z,323
2022-12-06T04:25:11.929Z,323
2022-12-06T04:25:41.661Z,323
2022-12-06T04:26:12.527Z,323
2022-12-06T04:26:43.449Z,323
2022-12-06T04:27:14.684Z,323
2022-12-06T04:27:45.698Z,323
2022-12-06T04:28:16.896Z,323
2022-12-06T04:28:47.779Z,323
2022-12-06T04:29:18.651Z,323
2022-12-06T04:29:49.729Z,323
2022-12-06T04:30:24.301Z,323
2022-12-06T04:30:51.687Z,323
2022-12-06T04:31:22.932Z,323
2022-12-06T04:31:53.820Z,323
2022-12-06T04:32:24.568Z,323
2022-12-06T04:32:55.734Z,323
2022-12-06T04:33:26.756Z,323
2022-12-06T04:33:57.771Z,323
2022-12-06T04:34:28.476Z,323
2022-12-06T04:34:59.619Z,323
2022-12-06T04:35:31.764Z,323
2022-12-06T04:38:36.618Z,323
2022-12-06T04:39:07.876Z,323
2022-12-06T04:39:38.790Z,323
2022-12-06T04:40:09.935Z,323
2022-12-06T04:40:41.766Z,323
2022-12-06T04:41:11.721Z,323
2022-12-06T04:41:42.669Z,323
2022-12-06T04:42:13.528Z,323
2022-12-06T04:42:44.583Z,323
2022-12-06T04:43:15.475Z,323
2022-12-06T04:43:46.465Z,323
2022-12-06T04:44:17.804Z,323
2022-12-06T04:44:48.757Z,323
2022-12-06T04:45:22.608Z,323
2022-12-06T04:45:51.595Z,323
2022-12-06T04:46:21.817Z,323
2022-12-06T04:46:52.925Z,323
2022-12-06T04:47:23.764Z,323
2022-12-06T04:47:54.794Z,323
2022-12-06T04:48:25.739Z,323
2022-12-06T04:48:56.836Z,323
2022-12-06T04:49:27.846Z,323
2022-12-06T04:49:58.862Z,323
2022-12-06T04:50:29.770Z,323
2022-12-06T04:51:02.011Z,323
2022-12-06T04:51:31.708Z,323
2022-12-06T04:52:02.731Z,323
2022-12-06T04:52:36.057Z,323
2022-12-06T04:53:04.720Z,323
2022-12-06T04:53:35.629Z,323
2022-12-06T04:54:06.708Z,323
2022-12-06T04:54:37.924Z,323
2022-12-06T04:55:08.972Z,323
2022-12-06T04:55:39.606Z,323
2022-12-06T04:56:11.867Z,323
2022-12-06T04:56:41.789Z,323
2022-12-06T04:57:12.745Z,323
2022-12-06T04:57:43.549Z,323
2022-12-06T04:58:14.660Z,323
2022-12-06T04:58:46.458Z,323
2022-12-06T04:59:16.925Z,323
2022-12-06T04:59:47.828Z,323
2022-12-06T05:00:21.510Z,323
2022-12-06T05:00:49.925Z,323
2022-12-06T05:01:21.779Z,323
2022-12-06T05:01:51.743Z,323
2022-12-06T05:02:22.846Z,323
2022-12-06T05:02:53.791Z,323
2022-12-06T05:03:24.803Z,323
2022-12-06T05:03:55.911Z,323
2022-12-06T05:04:27.005Z,323
2022-12-06T05:04:57.813Z,323
2022-12-06T05:05:28.510Z,323
2022-12-06T05:06:00.129Z,323
2022-12-06T05:06:31.866Z,323
2022-12-06T05:07:01.817Z,323
2022-12-06T05:07:33.017Z,323
2022-12-06T05:08:03.925Z,323
2022-12-06T05:08:34.948Z,323
2022-12-06T05:09:05.801Z,323
2022-12-06T05:09:36.737Z,323
2022-12-06T05:10:07.727Z,323
2022-12-06T05:10:38.801Z,323
2022-12-06T05:11:09.701Z,323
2022-12-06T05:11:41.814Z,323
2022-12-06T05:12:12.208Z,323
2022-12-06T05:12:42.754Z,323
2022-12-06T05:13:13.506Z,323
2022-12-06T05:13:44.706Z,323
2022-12-06T05:14:15.719Z,323
2022-12-06T05:14:46.975Z,323
2022-12-06T05:15:20.584Z,323
2022-12-06T05:15:48.757Z,323
2022-12-06T05:16:19.849Z,323
2022-12-06T05:16:51.846Z,323
2022-12-06T05:17:21.801Z,323
2022-12-06T05:17:52.762Z,323
2022-12-06T05:18:23.680Z,323
2022-12-06T05:18:54.582Z,323
2022-12-06T05:19:25.534Z,323
2022-12-06T05:19:56.956Z,323
2022-12-06T05:20:27.751Z,323
2022-12-06T05:20:58.959Z,323
2022-12-06T05:21:29.658Z,323
2022-12-06T05:22:01.669Z,323
2022-12-06T05:22:31.630Z,323
2022-12-06T05:23:02.800Z,323
2022-12-06T05:23:33.769Z,323
2022-12-06T05:24:04.615Z,323
2022-12-06T05:24:35.892Z,323
2022-12-06T05:25:08.962Z,323
2022-12-06T05:25:37.830Z,323
2022-12-06T05:26:08.805Z,323
2022-12-06T05:26:39.703Z,323
2022-12-06T05:27:11.582Z,323
2022-12-06T05:27:41.943Z,323
2022-12-06T05:28:12.785Z,323
2022-12-06T05:28:43.543Z,323
2022-12-06T05:29:14.651Z,323
2022-12-06T05:29:45.884Z,323
2022-12-06T05:30:19.418Z,323
2022-12-06T05:30:47.899Z,323
2022-12-06T05:31:18.746Z,323
2022-12-06T05:31:49.912Z,323
2022-12-06T05:32:21.732Z,323
2022-12-06T05:32:56.838Z,323
2022-12-06T05:33:22.859Z,323
2022-12-06T05:33:53.879Z,323
2022-12-06T05:34:24.804Z,323
2022-12-06T05:34:55.619Z,323
2022-12-06T05:35:26.968Z,323
2022-12-06T05:35:57.846Z,323
2022-12-06T05:36:28.646Z,323
2022-12-06T05:36:59.674Z,323
2022-12-06T05:37:31.870Z,323
2022-12-06T05:38:01.914Z,323
2022-12-06T05:38:32.950Z,323
2022-12-06T05:39:03.764Z,323
2022-12-06T05:39:34.862Z,323
2022-12-06T05:40:05.762Z,323
2022-12-06T05:40:37.397Z,323
2022-12-06T05:41:07.748Z,323
2022-12-06T05:41:38.904Z,323
2022-12-06T05:42:09.980Z,323
2022-12-06T05:42:41.950Z,323
2022-12-06T05:43:11.952Z,323
2022-12-06T05:43:42.871Z,323
2022-12-06T05:44:13.562Z,323
2022-12-06T05:44:44.670Z,323
2022-12-06T05:45:18.504Z,323
2022-12-06T05:45:47.033Z,323
2022-12-06T05:46:18.108Z,323
2022-12-06T05:46:48.845Z,323
2022-12-06T05:47:19.888Z,323
2022-12-06T05:47:52.003Z,323
2022-12-06T05:48:22.232Z,323
2022-12-06T05:48:52.775Z,323
2022-12-06T05:49:23.907Z,323
2022-12-06T05:49:54.834Z,323
2022-12-06T05:50:25.649Z,323
2022-12-06T05:50:57.369Z,323
2022-12-06T05:51:27.955Z,323
2022-12-06T05:52:03.693Z,323
2022-12-06T05:52:29.750Z,323
2022-12-06T05:53:01.895Z,323
2022-12-06T05:53:31.922Z,323
2022-12-06T05:54:02.816Z,323
2022-12-06T05:54:33.842Z,323
2022-12-06T05:55:04.765Z,323
2022-12-06T05:55:35.775Z,323
2022-12-06T05:56:06.714Z,323
2022-12-06T05:56:37.927Z,323
2022-12-06T05:57:08.916Z,323
2022-12-06T05:57:43.949Z,323
2022-12-06T05:58:12.158Z,323
2022-12-06T05:58:41.957Z,323
2022-12-06T05:59:12.867Z,323
2022-12-06T05:59:43.714Z,323
2022-12-06T06:00:17.527Z,323
2022-12-06T06:00:45.723Z,323
2022-12-06T06:01:16.746Z,311
2022-12-06T06:01:47.775Z,305
2022-12-06T06:02:19.061Z,283
2022-12-06T06:02:49.764Z,271
2022-12-06T06:03:21.991Z,294
2022-12-06T06:03:51.996Z,298
2022-12-06T06:04:22.851Z,298
2022-12-06T06:04:53.945Z,298
2022-12-06T06:05:24.827Z,302
2022-12-06T06:05:55.779Z,302
2022-12-06T06:06:26.810Z,302
2022-12-06T06:06:57.871Z,302
2022-12-06T06:07:28.663Z,302
2022-12-06T06:07:59.930Z,302
2022-12-06T06:08:31.757Z,302
2022-12-06T06:09:01.845Z,302
2022-12-06T06:09:32.799Z,302
2022-12-06T06:10:03.855Z,302
2022-12-06T06:10:34.761Z,300
2022-12-06T06:11:05.703Z,290
2022-12-06T06:11:36.877Z,290
2022-12-06T06:12:12.219Z,290
2022-12-06T06:12:39.011Z,294
2022-12-06T06:13:09.845Z,294
2022-12-06T06:13:41.760Z,294
2022-12-06T06:14:11.914Z,294
2022-12-06T06:14:42.894Z,294
2022-12-06T06:15:16.542Z,294
2022-12-06T06:15:44.788Z,294
2022-12-06T06:16:15.789Z,294
2022-12-06T06:16:46.837Z,294
2022-12-06T06:17:18.053Z,294
2022-12-06T06:17:48.957Z,294
2022-12-06T06:18:19.855Z,294
2022-12-06T06:18:51.793Z,294
2022-12-06T06:19:21.819Z,294
2022-12-06T06:19:53.218Z,294
2022-12-06T06:20:23.749Z,294
2022-12-06T06:20:54.839Z,294
2022-12-06T06:21:25.762Z,294
2022-12-06T06:21:56.979Z,294
2022-12-06T06:22:28.011Z,294
2022-12-06T06:22:58.882Z,294
2022-12-06T06:23:29.950Z,298
2022-12-06T06:24:01.844Z,298
2022-12-06T06:24:31.666Z,298
2022-12-06T06:25:02.813Z,298
2022-12-06T06:25:33.954Z,298
2022-12-06T06:26:04.826Z,298
2022-12-06T06:26:35.833Z,298
2022-12-06T06:27:06.829Z,298
2022-12-06T06:27:38.017Z,298
2022-12-06T06:28:09.150Z,298
2022-12-06T06:28:40.206Z,298
2022-12-06T06:29:11.772Z,298
2022-12-06T06:29:45.285Z,298
2022-12-06T06:30:15.775Z,298
2022-12-06T06:30:43.743Z,298
2022-12-06T06:31:14.781Z,298
2022-12-06T06:31:45.840Z,298
2022-12-06T06:32:16.860Z,298
2022-12-06T06:32:47.889Z,298
2022-12-06T06:33:18.972Z,298
2022-12-06T06:33:50.570Z,298
2022-12-06T06:34:21.769Z,298
2022-12-06T06:34:51.789Z,298
2022-12-06T06:35:22.912Z,298
2022-12-06T06:35:54.104Z,298
2022-12-06T06:36:25.369Z,298
2022-12-06T06:36:55.736Z,298
2022-12-06T06:37:26.547Z,298
2022-12-06T06:37:57.938Z,298
2022-12-06T06:38:28.827Z,298
2022-12-06T06:39:00.051Z,298
2022-12-06T06:39:31.743Z,298
2022-12-06T06:40:02.041Z,298
2022-12-06T06:40:32.828Z,298
2022-12-06T06:41:04.059Z,298
2022-12-06T06:41:34.956Z,298
2022-12-06T06:42:05.836Z,298
2022-12-06T06:42:37.536Z,298
2022-12-06T06:43:07.994Z,298
2022-12-06T06:43:39.027Z,298
2022-12-06T06:44:09.885Z,298
2022-12-06T06:44:41.980Z,298
2022-12-06T06:45:14.562Z,298
2022-12-06T06:45:43.018Z,298
2022-12-06T06:46:13.837Z,298
2022-12-06T06:46:44.839Z,298
2022-12-06T06:47:15.799Z,298
2022-12-06T06:47:47.024Z,298
2022-12-06T06:48:17.744Z,298
2022-12-06T06:48:48.902Z,298
2022-12-06T06:49:19.853Z,298
2022-12-06T06:49:51.966Z,298
2022-12-06T06:50:21.817Z,298
2022-12-06T06:50:56.996Z,298
2022-12-06T06:51:23.837Z,298
2022-12-06T06:51:54.950Z,298
2022-12-06T06:52:25.906Z,298
2022-12-06T06:52:56.810Z,307
2022-12-06T06:53:28.122Z,307
2022-12-06T06:53:58.880Z,307
2022-12-06T06:54:29.932Z,307
2022-12-06T06:55:01.669Z,307
2022-12-06T06:55:31.737Z,305
2022-12-06T06:56:02.862Z,308
2022-12-06T06:56:33.956Z,308
2022-12-06T06:57:04.923Z,308
2022-12-06T06:57:35.702Z,308
2022-12-06T06:58:06.899Z,308
2022-12-06T06:58:38.232Z,308
2022-12-06T06:59:08.812Z,308
2022-12-06T06:59:39.860Z,308
2022-12-06T07:00:14.553Z,308
2022-12-06T07:00:42.083Z,308
2022-12-06T07:01:12.760Z,308
2022-12-06T07:01:43.721Z,308
2022-12-06T07:02:14.865Z,308
2022-12-06T07:02:46.047Z,308
2022-12-06T07:03:16.743Z,308
2022-12-06T07:03:47.789Z,308
2022-12-06T07:04:18.970Z,308
2022-12-06T07:04:49.902Z,308
2022-12-06T07:05:22.118Z,308
2022-12-06T07:05:52.124Z,308
2022-12-06T07:06:23.131Z,308
2022-12-06T07:06:53.866Z,308
2022-12-06T07:07:25.209Z,308
2022-12-06T07:07:56.201Z,308
2022-12-06T07:08:27.102Z,308
2022-12-06T07:08:58.322Z,308
2022-12-06T07:09:29.122Z,308
2022-12-06T07:10:00.381Z,308
2022-12-06T07:10:31.949Z,308
2022-12-06T07:11:01.989Z,308
2022-12-06T07:11:33.166Z,308
2022-12-06T07:12:04.317Z,308